Terminal Aerodrome Forecast
Issued by NWS Corpus Christi, TX

Home | Current Version | Previous Version | Text Only | Print | Product List | Glossary On
Versions: 1 2 3 4 5 6 7 8 9 10 11 12 13 14 15 16 17 18 19 20 21 22 23 24 25 26 27 28 29 30 31 32 33 34 35 36
000
FTUS44 KCRP 170531
TAFVCT
TAF
KVCT 170531Z 1706/1806 VRB03KT 1SM BR OVC003
     FM170900 27002KT 1/4SM FG OVC001
     FM171600 28005KT 4SM BR OVC005
     FM172100 VRB05KT P6SM BKN018
     FM180400 17005KT 5SM BR OVC009=

USA.gov is the U.S. government's official web portal to all federal, state and local government web resources and services.